Isabela, Philippines
Current Conditions -  °F | °C
As of 5:00 PM on Wednesday 22 Oct 2014 (Local Time) from RPMZ Reporting Station
Scattered Clouds Scattered Clouds  
Wind Chill: 88°   Ceiling: Unl
Heat Index: 102°   Visibility: 6mi
Dew Point: 79°   Wind: 5mph
Humidity: 75%   Direction: 240°WSW
Pressure: 29.85"   Gusts: NA
Location:  6.7°N, 121.97°E
Report Text: RPMZ 220900Z 24004KT 9999 FEW017CB SCT300 31/26 Q1011 RMK A2985 CB NW
Loading
Personal Weather Stations






























Interactive Weather Map
Tropical Storm Tracking
New forecast layout! Learn more

10-Day Weather Forecast

Advertisements
Track Severe Weather on mobile